createdAt,value
2018-05-23T00:00:12.112Z,69.30
2018-05-23T00:01:12.071Z,78.80
2018-05-23T00:02:12.038Z,74.20
2018-05-23T00:03:12.021Z,84.20
2018-05-23T00:04:11.962Z,77.20
2018-05-23T00:05:11.914Z,78.30
2018-05-23T00:06:11.872Z,73.50
2018-05-23T00:07:11.834Z,76.00
2018-05-23T00:08:11.796Z,81.80
2018-05-23T00:09:21.705Z,81.40
2018-05-23T00:10:11.751Z,88.90
2018-05-23T00:11:11.687Z,86.10
2018-05-23T00:12:11.647Z,82.10
2018-05-23T00:13:11.613Z,83.20
2018-05-23T00:14:11.567Z,86.10
2018-05-23T00:15:11.563Z,88.40
2018-05-23T00:16:11.501Z,85.10
2018-05-23T00:17:11.458Z,87.60
2018-05-23T00:18:11.424Z,88.00
2018-05-23T00:19:11.391Z,88.60
2018-05-23T00:20:11.374Z,86.80
2018-05-23T00:21:11.324Z,90.60
2018-05-23T00:22:11.281Z,92.10
2018-05-23T00:23:11.227Z,92.30
2018-05-23T00:24:11.197Z,88.10
2018-05-23T00:25:11.177Z,89.50
2018-05-23T00:26:11.121Z,93.30
2018-05-23T00:27:11.091Z,94.10
2018-05-23T00:28:11.053Z,96.10
2018-05-23T00:29:11.019Z,99.80
2018-05-23T00:30:11.002Z,94.70
2018-05-23T00:31:10.927Z,102.30
2018-05-23T00:32:21.228Z,90.70
2018-05-23T00:33:10.852Z,94.30
2018-05-23T00:34:10.829Z,88.60
2018-05-23T00:35:10.796Z,86.50
2018-05-23T00:36:10.740Z,87.00
2018-05-23T00:37:10.711Z,96.00
2018-05-23T00:38:10.669Z,86.90
2018-05-23T00:39:10.642Z,85.80
2018-05-23T00:40:10.655Z,81.60
2018-05-23T00:41:10.558Z,78.10
2018-05-23T00:42:10.514Z,78.70
2018-05-23T00:43:10.476Z,88.80
2018-05-23T00:44:10.445Z,81.50
2018-05-23T00:45:10.449Z,84.10
2018-05-23T00:46:10.377Z,84.30
2018-05-23T00:47:10.322Z,88.10
2018-05-23T00:48:10.293Z,88.60
2018-05-23T00:49:10.279Z,89.80
2018-05-23T00:50:10.313Z,88.50
2018-05-23T00:51:10.179Z,97.50
2018-05-23T00:52:10.144Z,86.90
2018-05-23T00:53:10.096Z,88.80
2018-05-23T00:54:10.085Z,97.60
2018-05-23T00:55:10.014Z,95.40
2018-05-23T00:56:09.978Z,101.80
2018-05-23T00:57:09.950Z,95.20
2018-05-23T00:58:09.908Z,93.90
2018-05-23T00:59:09.900Z,92.90
2018-05-23T01:00:09.842Z,90.70
2018-05-23T01:01:09.790Z,91.20
2018-05-23T01:02:09.759Z,92.70
2018-05-23T01:03:09.724Z,95.50
2018-05-23T01:04:09.706Z,105.40
2018-05-23T01:05:09.645Z,106.80
2018-05-23T01:06:09.599Z,103.30
2018-05-23T01:07:09.560Z,91.20
2018-05-23T01:08:09.533Z,90.20
2018-05-23T01:09:09.523Z,92.90
2018-05-23T01:10:09.455Z,89.30
2018-05-23T01:11:09.419Z,94.40
2018-05-23T01:12:09.376Z,94.10
2018-05-23T01:13:09.341Z,102.00
2018-05-23T01:14:09.351Z,101.50
2018-05-23T01:15:09.260Z,101.00
2018-05-23T01:16:09.228Z,103.70
2018-05-23T01:17:09.186Z,95.80
2018-05-23T01:18:19.251Z,97.40
2018-05-23T01:19:09.170Z,104.80
2018-05-23T01:20:09.074Z,96.10
2018-05-23T01:21:09.042Z,95.60
2018-05-23T01:22:08.996Z,96.70
2018-05-23T01:23:08.972Z,91.00
2018-05-23T01:24:08.942Z,95.00
2018-05-23T01:25:08.877Z,92.50
2018-05-23T01:26:08.837Z,88.10
2018-05-23T01:27:08.813Z,87.20
2018-05-23T01:28:08.767Z,88.80
2018-05-23T01:29:08.752Z,90.80
2018-05-23T01:30:08.699Z,86.30
2018-05-23T01:31:08.653Z,89.70
2018-05-23T01:32:08.614Z,90.40
2018-05-23T01:33:08.583Z,93.30
2018-05-23T01:34:08.568Z,96.40
2018-05-23T01:35:08.492Z,100.80
2018-05-23T01:36:08.462Z,109.10
2018-05-23T01:37:08.420Z,112.60
2018-05-23T01:38:08.384Z,112.10
2018-05-23T01:39:08.374Z,105.20
2018-05-23T01:40:08.311Z,108.80
2018-05-23T01:41:08.274Z,104.40
2018-05-23T01:42:08.236Z,104.90
2018-05-23T01:43:08.270Z,101.80
2018-05-23T01:44:08.174Z,108.70
2018-05-23T01:45:08.122Z,113.70
2018-05-23T01:46:08.087Z,114.90
2018-05-23T01:47:08.045Z,110.10
2018-05-23T01:48:08.011Z,101.00
2018-05-23T01:49:07.981Z,96.80
2018-05-23T01:50:07.926Z,108.30
2018-05-23T01:51:07.900Z,99.40
2018-05-23T01:52:07.854Z,118.20
2018-05-23T01:53:07.819Z,105.80
2018-05-23T01:54:07.798Z,101.60
2018-05-23T01:55:07.733Z,93.90
2018-05-23T01:56:07.694Z,99.60
2018-05-23T01:57:07.665Z,114.20
2018-05-23T01:58:07.617Z,116.80
2018-05-23T01:59:07.608Z,116.50
2018-05-23T02:00:07.550Z,110.40
2018-05-23T02:01:07.510Z,111.80
2018-05-23T02:02:07.473Z,115.60
2018-05-23T02:03:07.425Z,112.00
2018-05-23T02:04:07.412Z,114.70
2018-05-23T02:05:07.360Z,108.00
2018-05-23T02:06:07.326Z,112.70
2018-05-23T02:07:07.278Z,112.50
2018-05-23T02:08:07.242Z,111.80
2018-05-23T02:09:07.225Z,114.50
2018-05-23T02:10:07.161Z,117.30
2018-05-23T02:11:07.131Z,115.60
2018-05-23T02:12:07.093Z,110.10
2018-05-23T02:13:07.060Z,106.60
2018-05-23T02:14:07.054Z,97.60
2018-05-23T02:15:06.972Z,107.10
2018-05-23T02:16:06.932Z,101.10
2018-05-23T02:17:06.894Z,103.90
2018-05-23T02:18:06.856Z,112.70
2018-05-23T02:19:06.851Z,110.80
2018-05-23T02:20:06.790Z,117.40
2018-05-23T02:21:06.747Z,113.70
2018-05-23T02:22:06.709Z,108.90
2018-05-23T02:23:06.672Z,108.50
2018-05-23T02:24:06.659Z,104.70
2018-05-23T02:25:06.595Z,114.50
2018-05-23T02:26:06.575Z,102.50
2018-05-23T02:27:06.518Z,104.50
2018-05-23T02:28:06.475Z,101.60
2018-05-23T02:29:06.464Z,105.20
2018-05-23T02:30:06.415Z,105.20
2018-05-23T02:31:06.371Z,108.60
2018-05-23T02:32:06.333Z,114.40
2018-05-23T02:33:06.293Z,119.30
2018-05-23T02:34:06.296Z,119.50
2018-05-23T02:35:06.211Z,119.80
2018-05-23T02:36:06.174Z,123.30
2018-05-23T02:37:06.137Z,123.40
2018-05-23T02:38:06.138Z,114.90
2018-05-23T02:39:06.066Z,118.20
2018-05-23T02:40:06.050Z,115.50
2018-05-23T02:41:05.991Z,117.70
2018-05-23T02:42:05.943Z,117.10
2018-05-23T02:43:05.962Z,113.10
2018-05-23T02:44:05.885Z,115.90
2018-05-23T02:45:05.845Z,118.20
2018-05-23T02:46:05.810Z,120.80
2018-05-23T02:47:05.840Z,118.90
2018-05-23T02:48:05.743Z,118.10
2018-05-23T02:49:05.682Z,128.90
2018-05-23T02:50:05.648Z,121.30
2018-05-23T02:51:05.606Z,126.20
2018-05-23T02:52:05.572Z,114.40
2018-05-23T02:53:05.546Z,112.80
2018-05-23T02:54:05.505Z,117.70
2018-05-23T02:55:05.461Z,119.70
2018-05-23T02:56:05.421Z,116.40
2018-05-23T02:57:05.391Z,114.40
2018-05-23T02:58:05.374Z,114.50
2018-05-23T02:59:05.305Z,121.60
2018-05-23T03:00:05.270Z,123.00
2018-05-23T03:01:05.222Z,118.20
2018-05-23T03:02:05.185Z,125.80
2018-05-23T03:03:05.209Z,129.60
2018-05-23T03:04:05.147Z,116.20
2018-05-23T03:05:05.086Z,119.60
2018-05-23T03:06:05.046Z,120.10
2018-05-23T03:07:04.996Z,120.40
2018-05-23T03:08:04.991Z,122.80
2018-05-23T03:09:04.933Z,120.60
2018-05-23T03:10:04.889Z,114.50
2018-05-23T03:11:04.843Z,119.10
2018-05-23T03:12:04.811Z,121.60
2018-05-23T03:13:04.798Z,121.30
2018-05-23T03:14:04.729Z,122.70
2018-05-23T03:15:04.706Z,124.40
2018-05-23T03:16:15.809Z,120.60
2018-05-23T03:17:04.638Z,109.50
2018-05-23T03:18:04.573Z,111.50
2018-05-23T03:19:04.554Z,115.80
2018-05-23T03:20:04.501Z,115.90
2018-05-23T03:21:04.469Z,120.90
2018-05-23T03:22:04.521Z,114.20
2018-05-23T03:23:04.395Z,112.30
2018-05-23T03:24:04.351Z,122.80
2018-05-23T03:25:04.316Z,123.30
2018-05-23T03:26:04.283Z,115.90
2018-05-23T03:27:04.305Z,114.20
2018-05-23T03:28:04.204Z,115.30
2018-05-23T03:29:04.164Z,117.40
2018-05-23T03:30:04.124Z,110.70
2018-05-23T03:31:04.089Z,105.60
2018-05-23T03:32:04.075Z,115.70
2018-05-23T03:33:04.002Z,107.10
2018-05-23T03:34:03.968Z,116.90
2018-05-23T03:35:03.958Z,118.40
2018-05-23T03:36:03.898Z,115.40
2018-05-23T03:37:03.901Z,100.90
2018-05-23T03:38:03.818Z,102.70
2018-05-23T03:39:03.781Z,101.00
2018-05-23T03:40:14.845Z,115.20
2018-05-23T03:41:03.716Z,115.50
2018-05-23T03:42:03.695Z,102.50
2018-05-23T03:43:03.618Z,97.30
2018-05-23T03:44:03.597Z,96.20
2018-05-23T03:45:03.553Z,104.00
2018-05-23T03:46:03.512Z,111.90
2018-05-23T03:47:03.512Z,116.60
2018-05-23T03:48:03.434Z,119.50
2018-05-23T03:49:03.398Z,114.90
2018-05-23T03:50:03.371Z,103.70
2018-05-23T03:51:03.335Z,103.90
2018-05-23T03:52:03.284Z,114.40
2018-05-23T03:53:03.278Z,114.20
2018-05-23T03:54:03.215Z,105.50
2018-05-23T03:55:03.168Z,103.50
2018-05-23T03:56:03.151Z,100.20
2018-05-23T03:57:03.090Z,98.90
2018-05-23T03:58:03.055Z,97.80
2018-05-23T03:59:03.031Z,106.60
2018-05-23T04:00:02.979Z,104.90
2018-05-23T04:01:02.987Z,102.50
2018-05-23T04:02:02.912Z,98.80
2018-05-23T04:03:02.859Z,102.00
2018-05-23T04:04:02.818Z,111.10
2018-05-23T04:05:02.777Z,114.20
2018-05-23T04:06:02.770Z,100.20
2018-05-23T04:07:02.719Z,101.90
2018-05-23T04:08:02.683Z,111.90
2018-05-23T04:09:02.641Z,106.40
2018-05-23T04:10:02.593Z,107.40
2018-05-23T04:11:02.597Z,100.70
2018-05-23T04:12:02.523Z,99.20
2018-05-23T04:13:02.485Z,98.70
2018-05-23T04:14:02.458Z,103.70
2018-05-23T04:15:02.407Z,104.40
2018-05-23T04:16:02.370Z,100.20
2018-05-23T04:17:02.344Z,98.50
2018-05-23T04:18:02.290Z,102.00
2018-05-23T04:19:02.254Z,97.40
2018-05-23T04:20:02.219Z,101.50
2018-05-23T04:21:02.200Z,96.70
2018-05-23T04:22:02.156Z,99.40
2018-05-23T04:23:02.099Z,102.60
2018-05-23T04:24:02.089Z,106.90
2018-05-23T04:25:02.050Z,106.30
2018-05-23T04:26:02.018Z,105.60
2018-05-23T04:27:01.942Z,109.40
2018-05-23T04:28:01.904Z,106.40
2018-05-23T04:29:01.879Z,109.90
2018-05-23T04:30:01.837Z,107.30
2018-05-23T04:31:01.838Z,106.80
2018-05-23T04:32:01.758Z,111.10
2018-05-23T04:33:01.726Z,113.00
2018-05-23T04:34:01.693Z,102.90
2018-05-23T04:35:01.638Z,106.40
2018-05-23T04:36:01.646Z,100.60
2018-05-23T04:37:01.578Z,101.20
2018-05-23T04:38:01.557Z,100.70
2018-05-23T04:39:01.501Z,96.90
2018-05-23T04:40:01.471Z,102.20
2018-05-23T04:41:01.435Z,97.30
2018-05-23T04:42:01.381Z,98.20
2018-05-23T04:43:01.352Z,105.60
2018-05-23T04:44:01.307Z,102.20
2018-05-23T04:45:01.273Z,102.30
2018-05-23T04:46:01.260Z,94.50
2018-05-23T04:47:01.187Z,95.00
2018-05-23T04:48:01.148Z,93.70
2018-05-23T04:49:01.111Z,94.60
2018-05-23T04:50:01.113Z,91.50
2018-05-23T04:51:01.047Z,93.10
2018-05-23T04:52:01.003Z,94.10
2018-05-23T04:53:00.979Z,99.70
2018-05-23T04:54:00.930Z,98.00
2018-05-23T04:55:00.914Z,97.40
2018-05-23T04:56:00.848Z,95.40
2018-05-23T04:57:00.823Z,92.00
2018-05-23T04:58:00.778Z,97.20
2018-05-23T04:59:00.742Z,92.20
2018-05-23T05:00:00.719Z,95.20
2018-05-23T05:01:00.658Z,90.30
2018-05-23T05:02:00.633Z,92.30
2018-05-23T05:03:00.596Z,90.90
2018-05-23T05:04:00.559Z,89.80
2018-05-23T05:05:00.544Z,94.00
2018-05-23T05:06:00.479Z,96.20
2018-05-23T05:07:00.430Z,94.60
2018-05-23T05:08:00.393Z,91.60
2018-05-23T05:09:00.360Z,93.10
2018-05-23T05:10:00.409Z,87.00
2018-05-23T05:11:00.299Z,87.60
2018-05-23T05:12:00.284Z,94.00
2018-05-23T05:13:00.207Z,88.30
2018-05-23T05:14:00.177Z,85.50
2018-05-23T05:15:00.164Z,87.70
2018-05-23T05:16:00.121Z,84.30
2018-05-23T05:17:00.063Z,87.40
2018-05-23T05:18:00.045Z,91.00
2018-05-23T05:18:59.982Z,88.40
2018-05-23T05:19:59.973Z,85.70
2018-05-23T05:20:59.909Z,84.40
2018-05-23T05:21:59.871Z,86.50
2018-05-23T05:22:59.848Z,82.60
2018-05-23T05:23:59.843Z,83.80
2018-05-23T05:24:59.864Z,83.80
2018-05-23T05:25:59.730Z,85.80
2018-05-23T05:26:59.677Z,83.70
2018-05-23T05:27:59.643Z,82.40
2018-05-23T05:28:59.659Z,81.40
2018-05-23T05:29:59.594Z,81.70
2018-05-23T05:30:59.545Z,83.70
2018-05-23T05:31:59.494Z,87.60
2018-05-23T05:32:59.460Z,79.70
2018-05-23T05:33:59.441Z,79.50
2018-05-23T05:34:59.385Z,81.50
2018-05-23T05:35:59.352Z,81.50
2018-05-23T05:36:59.312Z,81.90
2018-05-23T05:37:59.283Z,76.00
2018-05-23T05:38:59.255Z,81.60
2018-05-23T05:39:59.262Z,77.30
2018-05-23T05:40:59.166Z,78.10
2018-05-23T05:41:59.118Z,73.90
2018-05-23T05:42:59.091Z,72.10
2018-05-23T05:43:59.076Z,75.50
2018-05-23T05:44:59.012Z,77.20
2018-05-23T05:45:58.975Z,79.90
2018-05-23T05:46:58.944Z,75.50
2018-05-23T05:47:58.900Z,73.50
2018-05-23T05:48:58.887Z,76.70
2018-05-23T05:49:58.837Z,69.50
2018-05-23T05:50:58.783Z,72.00
2018-05-23T05:51:58.755Z,72.20
2018-05-23T05:52:59.382Z,71.90
2018-05-23T05:53:58.697Z,68.80
2018-05-23T05:54:58.653Z,64.40
2018-05-23T05:55:58.606Z,65.40
2018-05-23T05:56:58.583Z,63.80
2018-05-23T05:57:58.527Z,64.00
2018-05-23T05:58:58.507Z,66.80
2018-05-23T05:59:58.446Z,64.30
2018-05-23T06:00:58.419Z,66.70
2018-05-23T06:01:58.437Z,69.00
2018-05-23T06:02:58.368Z,61.80
2018-05-23T06:03:58.296Z,62.00
2018-05-23T06:04:58.258Z,58.00
2018-05-23T06:05:58.232Z,61.10
2018-05-23T06:06:58.236Z,57.60
2018-05-23T06:07:58.183Z,62.10
2018-05-23T06:08:58.132Z,57.90
2018-05-23T06:09:58.168Z,55.10
2018-05-23T06:10:58.036Z,59.30
2018-05-23T06:11:58.004Z,54.30
2018-05-23T06:12:57.995Z,54.10
2018-05-23T06:13:57.934Z,54.60
2018-05-23T06:14:57.901Z,55.60
2018-05-23T06:15:57.862Z,54.40
2018-05-23T06:16:57.826Z,55.90
2018-05-23T06:17:57.815Z,56.10
2018-05-23T06:18:57.758Z,52.80
2018-05-23T06:19:57.719Z,50.00
2018-05-23T06:20:57.680Z,50.40
2018-05-23T06:21:57.651Z,50.20
2018-05-23T06:22:57.619Z,48.70
2018-05-23T06:23:57.574Z,49.90
2018-05-23T06:24:57.532Z,45.90
2018-05-23T06:25:57.496Z,44.50
2018-05-23T06:26:57.481Z,46.20
2018-05-23T06:27:57.445Z,48.10
2018-05-23T06:28:57.393Z,47.40
2018-05-23T06:29:57.361Z,46.60
2018-05-23T06:30:57.308Z,46.50
2018-05-23T06:31:57.283Z,45.60
2018-05-23T06:32:57.289Z,45.20
2018-05-23T06:33:57.201Z,45.60
2018-05-23T06:34:57.164Z,43.00
2018-05-23T06:35:57.125Z,42.20
2018-05-23T06:36:57.140Z,44.30
2018-05-23T06:37:57.047Z,41.50
2018-05-23T06:38:57.021Z,40.40
2018-05-23T06:39:57.021Z,43.00
2018-05-23T06:40:56.946Z,42.20
2018-05-23T06:41:56.943Z,42.40
2018-05-23T06:42:56.870Z,44.40
2018-05-23T06:43:56.840Z,43.30
2018-05-23T06:44:56.800Z,41.90
2018-05-23T06:45:56.761Z,42.00
2018-05-23T06:46:56.752Z,40.20
2018-05-23T06:47:56.691Z,39.50
2018-05-23T06:48:56.656Z,37.90
2018-05-23T06:49:56.678Z,39.50
2018-05-23T06:50:56.585Z,38.70
2018-05-23T06:51:56.579Z,38.50
2018-05-23T06:52:56.514Z,37.20
2018-05-23T06:53:56.480Z,37.40
2018-05-23T06:54:56.434Z,38.10
2018-05-23T06:55:56.422Z,37.30
2018-05-23T06:56:56.384Z,36.10
2018-05-23T06:57:56.333Z,35.60
2018-05-23T06:58:56.299Z,34.90
2018-05-23T06:59:56.263Z,36.80
2018-05-23T07:00:56.235Z,33.60
2018-05-23T07:01:56.222Z,35.20
2018-05-23T07:02:56.150Z,33.40
2018-05-23T07:03:56.114Z,32.50
2018-05-23T07:04:56.088Z,34.60
2018-05-23T07:05:56.078Z,32.20
2018-05-23T07:06:56.029Z,33.40
2018-05-23T07:07:55.982Z,35.60
2018-05-23T07:08:55.933Z,33.40
2018-05-23T07:09:55.913Z,33.40
2018-05-23T07:10:55.893Z,31.90
2018-05-23T07:11:55.840Z,31.50
2018-05-23T07:12:55.810Z,30.20
2018-05-23T07:13:55.767Z,31.80
2018-05-23T07:14:55.726Z,27.80
2018-05-23T07:15:55.718Z,27.00
2018-05-23T07:16:55.652Z,27.00
2018-05-23T07:17:55.660Z,27.40
2018-05-23T07:18:55.606Z,25.80
2018-05-23T07:19:55.564Z,23.80
2018-05-23T07:20:55.536Z,23.80
2018-05-23T07:21:55.481Z,25.40
2018-05-23T07:22:55.454Z,23.10
2018-05-23T07:23:55.415Z,22.30
2018-05-23T07:24:55.387Z,19.50
2018-05-23T07:25:55.389Z,16.10
2018-05-23T07:26:55.300Z,15.80
2018-05-23T07:27:55.270Z,15.80
2018-05-23T07:28:55.243Z,15.20
2018-05-23T07:29:55.203Z,15.40
2018-05-23T07:30:55.203Z,14.70
2018-05-23T07:31:55.144Z,14.80
2018-05-23T07:32:55.116Z,14.50
2018-05-23T07:34:03.439Z,14.50
2018-05-23T07:34:55.045Z,15.70
2018-05-23T07:35:55.026Z,14.60
2018-05-23T07:36:54.959Z,13.40
2018-05-23T07:37:54.925Z,14.80
2018-05-23T07:38:54.898Z,13.80
2018-05-23T07:39:54.870Z,14.10
2018-05-23T07:40:54.868Z,14.10
2018-05-23T07:41:54.800Z,14.30
2018-05-23T07:42:54.779Z,13.60
2018-05-23T07:43:54.727Z,14.40
2018-05-23T07:44:54.695Z,14.00
2018-05-23T07:45:54.770Z,13.70
2018-05-23T07:46:54.637Z,13.80
2018-05-23T07:47:54.609Z,13.20
2018-05-23T07:48:54.570Z,13.70
2018-05-23T07:49:54.560Z,13.30
2018-05-23T07:50:54.504Z,11.70
2018-05-23T07:51:54.457Z,12.70
2018-05-23T07:52:54.441Z,13.00
2018-05-23T07:53:54.398Z,13.70
2018-05-23T07:54:54.388Z,13.60
2018-05-23T07:55:54.328Z,13.80
2018-05-23T07:56:54.285Z,13.60
2018-05-23T07:57:54.262Z,13.90
2018-05-23T07:58:54.223Z,12.90
2018-05-23T07:59:54.213Z,12.70
2018-05-23T08:00:54.162Z,12.90
2018-05-23T08:01:54.133Z,12.90
2018-05-23T08:02:54.102Z,12.30
2018-05-23T08:03:54.076Z,12.30
2018-05-23T08:04:54.050Z,12.60
2018-05-23T08:05:53.988Z,12.10
2018-05-23T08:06:53.962Z,12.80
2018-05-23T08:07:53.932Z,12.30
2018-05-23T08:08:53.888Z,12.50
2018-05-23T08:09:53.876Z,12.90
2018-05-23T08:10:53.847Z,12.80
2018-05-23T08:11:53.789Z,12.30
2018-05-23T08:12:53.762Z,12.40
2018-05-23T08:13:53.726Z,13.30
2018-05-23T08:14:53.719Z,12.00
2018-05-23T08:15:53.664Z,11.60
2018-05-23T08:16:53.624Z,12.20
2018-05-23T08:17:53.593Z,12.00
2018-05-23T08:18:53.573Z,11.50
2018-05-23T08:19:53.601Z,12.20
2018-05-23T08:20:53.516Z,12.10
2018-05-23T08:21:53.473Z,12.20
2018-05-23T08:22:53.435Z,12.40
2018-05-23T08:23:53.446Z,12.20
2018-05-23T08:24:53.408Z,11.70
2018-05-23T08:25:53.347Z,12.00
2018-05-23T08:26:53.314Z,11.40
2018-05-23T08:27:53.275Z,11.80
2018-05-23T08:28:53.252Z,11.80
2018-05-23T08:29:53.300Z,11.40
2018-05-23T08:30:53.167Z,12.40
2018-05-23T08:31:53.134Z,11.30
2018-05-23T08:32:53.126Z,11.20
2018-05-23T08:33:53.117Z,11.50
2018-05-23T08:34:53.068Z,11.90
2018-05-23T08:35:53.037Z,11.50
2018-05-23T08:36:53.010Z,11.10
2018-05-23T08:37:52.955Z,10.90
2018-05-23T08:38:52.967Z,10.80
2018-05-23T08:39:52.887Z,10.70
2018-05-23T08:40:52.858Z,10.60
2018-05-23T08:41:52.831Z,10.50
2018-05-23T08:42:52.827Z,10.20
2018-05-23T08:44:02.520Z,10.30
2018-05-23T08:44:52.741Z,9.70
2018-05-23T08:45:52.731Z,9.50
2018-05-23T08:46:52.674Z,8.90
2018-05-23T08:47:52.637Z,10.20
2018-05-23T08:48:52.629Z,9.60
2018-05-23T08:49:52.579Z,9.20
2018-05-23T08:50:52.556Z,10.00
2018-05-23T08:51:52.523Z,9.80
2018-05-23T08:52:52.488Z,9.60
2018-05-23T08:53:52.482Z,9.30
2018-05-23T08:54:52.436Z,8.80
2018-05-23T08:55:52.413Z,8.20
2018-05-23T08:56:52.384Z,8.20
2018-05-23T08:57:52.371Z,8.20
2018-05-23T08:58:52.318Z,7.70
2018-05-23T08:59:52.280Z,7.70
2018-05-23T09:00:52.254Z,8.70
2018-05-23T09:01:52.229Z,8.30
2018-05-23T09:02:52.228Z,7.70
2018-05-23T09:03:52.177Z,8.70
2018-05-23T09:04:52.152Z,7.70
2018-05-23T09:05:52.120Z,7.40
2018-05-23T09:06:52.089Z,7.70
2018-05-23T09:08:02.032Z,7.80
2018-05-23T09:08:52.030Z,7.30
2018-05-23T09:09:51.997Z,7.30
2018-05-23T09:10:51.967Z,7.20
2018-05-23T09:11:51.937Z,6.70
2018-05-23T09:12:51.947Z,6.40
2018-05-23T09:13:51.898Z,7.80
2018-05-23T09:14:51.867Z,8.40
2018-05-23T09:15:51.834Z,8.00
2018-05-23T09:16:51.797Z,8.20
2018-05-23T09:17:51.796Z,8.10
2018-05-23T09:18:51.750Z,8.60
2018-05-23T09:19:51.709Z,8.60
2018-05-23T09:20:51.686Z,7.90
2018-05-23T09:21:51.660Z,7.40
2018-05-23T09:22:51.644Z,7.60
2018-05-23T09:23:51.595Z,8.40
2018-05-23T09:24:51.578Z,8.20
2018-05-23T09:25:52.098Z,7.90
2018-05-23T09:26:51.525Z,7.50
2018-05-23T09:27:51.515Z,7.50
2018-05-23T09:28:51.453Z,7.60
2018-05-23T09:29:51.428Z,7.90
2018-05-23T09:30:51.406Z,8.10
2018-05-23T09:31:51.367Z,8.30
2018-05-23T09:32:51.376Z,8.20
2018-05-23T09:33:51.334Z,8.10
2018-05-23T09:34:51.310Z,8.00
2018-05-23T09:35:51.274Z,7.70
2018-05-23T09:36:51.275Z,7.20
2018-05-23T09:37:51.205Z,7.00
2018-05-23T09:38:51.178Z,6.80
2018-05-23T09:39:51.153Z,7.00
2018-05-23T09:40:51.122Z,6.70
2018-05-23T09:41:51.112Z,6.50
2018-05-23T09:42:51.060Z,6.20
2018-05-23T09:43:51.026Z,6.80
2018-05-23T09:44:51.013Z,7.00
2018-05-23T09:45:50.972Z,7.70
2018-05-23T09:46:50.996Z,7.40
2018-05-23T09:47:50.923Z,7.30
2018-05-23T09:48:50.878Z,7.40
2018-05-23T09:49:50.854Z,6.60
2018-05-23T09:50:50.835Z,6.60
2018-05-23T09:51:50.831Z,6.40
2018-05-23T09:52:50.776Z,6.40
2018-05-23T09:53:50.750Z,6.70
2018-05-23T09:54:50.716Z,6.60
2018-05-23T09:55:50.679Z,6.80
2018-05-23T09:56:50.681Z,6.60
2018-05-23T09:57:50.623Z,6.30
2018-05-23T09:58:50.599Z,6.30
2018-05-23T09:59:50.578Z,6.70
2018-05-23T10:00:50.534Z,7.00
2018-05-23T10:01:50.524Z,6.40
2018-05-23T10:02:50.474Z,6.40
2018-05-23T10:03:50.442Z,6.00
2018-05-23T10:04:50.426Z,5.70
2018-05-23T10:05:50.392Z,6.20
2018-05-23T10:06:50.394Z,6.00
2018-05-23T10:07:50.330Z,5.70
2018-05-23T10:08:50.296Z,5.50
2018-05-23T10:09:50.269Z,6.20
2018-05-23T10:10:50.263Z,6.30
2018-05-23T10:11:50.221Z,5.80
2018-05-23T10:12:50.184Z,5.80
2018-05-23T10:13:50.149Z,5.50
2018-05-23T10:14:50.118Z,5.60
2018-05-23T10:15:50.123Z,5.50
2018-05-23T10:16:50.090Z,5.40
2018-05-23T10:17:50.033Z,5.60
2018-05-23T10:19:00.064Z,4.90
2018-05-23T10:19:49.967Z,5.30
2018-05-23T10:20:49.998Z,5.50
2018-05-23T10:21:49.906Z,5.40
2018-05-23T10:22:49.881Z,5.50
2018-05-23T10:23:49.848Z,5.40
2018-05-23T10:24:49.817Z,5.00
2018-05-23T10:25:49.807Z,5.10
2018-05-23T10:26:49.768Z,5.10
2018-05-23T10:27:49.877Z,5.50
2018-05-23T10:28:49.732Z,5.50
2018-05-23T10:29:49.673Z,5.50
2018-05-23T10:30:49.655Z,5.30
2018-05-23T10:31:49.605Z,5.10
2018-05-23T10:32:49.576Z,4.60
2018-05-23T10:33:49.549Z,4.50
2018-05-23T10:34:49.526Z,4.90
2018-05-23T10:35:49.530Z,4.60
2018-05-23T10:36:49.467Z,4.50
2018-05-23T10:37:49.444Z,3.70
2018-05-23T10:38:49.406Z,3.30
2018-05-23T10:39:49.375Z,3.70
2018-05-23T10:40:49.379Z,3.50
2018-05-23T10:41:49.320Z,3.70
2018-05-23T10:42:49.286Z,3.20
2018-05-23T10:43:49.258Z,3.90
2018-05-23T10:44:49.232Z,3.20
2018-05-23T10:45:49.215Z,3.20
2018-05-23T10:46:49.174Z,3.30
2018-05-23T10:47:49.140Z,3.20
2018-05-23T10:48:49.108Z,3.30
2018-05-23T10:49:49.107Z,3.20
2018-05-23T10:50:49.093Z,3.40
2018-05-23T10:51:49.014Z,3.40
2018-05-23T10:52:48.980Z,2.80
2018-05-23T10:53:48.958Z,3.20
2018-05-23T10:54:48.946Z,3.20
2018-05-23T10:55:48.903Z,3.00
2018-05-23T10:56:48.856Z,2.80
2018-05-23T10:57:48.823Z,2.90
2018-05-23T10:58:48.797Z,2.90
2018-05-23T10:59:48.794Z,2.90
2018-05-23T11:00:48.739Z,2.70
2018-05-23T11:01:48.706Z,2.90
2018-05-23T11:02:48.693Z,2.90
2018-05-23T11:03:48.647Z,2.80
2018-05-23T11:04:48.622Z,2.60
2018-05-23T11:05:48.644Z,2.80
2018-05-23T11:06:59.609Z,2.80
2018-05-23T11:07:48.511Z,2.70
2018-05-23T11:08:48.541Z,2.80
2018-05-23T11:09:48.436Z,2.90
2018-05-23T11:10:48.431Z,2.60
2018-05-23T11:11:48.372Z,2.60
2018-05-23T11:12:48.331Z,2.90
2018-05-23T11:13:48.301Z,2.80
2018-05-23T11:14:48.358Z,2.50
2018-05-23T11:15:48.262Z,2.60
2018-05-23T11:16:48.214Z,2.40
2018-05-23T11:17:48.172Z,2.60
2018-05-23T11:18:48.139Z,2.50
2018-05-23T11:19:48.105Z,2.40
2018-05-23T11:20:48.093Z,2.60
2018-05-23T11:21:48.035Z,2.80
2018-05-23T11:22:48.006Z,2.70
2018-05-23T11:23:47.964Z,2.60
2018-05-23T11:24:47.945Z,2.40
2018-05-23T11:25:47.911Z,2.50
2018-05-23T11:26:47.898Z,2.80
2018-05-23T11:27:47.838Z,2.60
2018-05-23T11:28:47.808Z,2.50
2018-05-23T11:29:47.857Z,2.60
2018-05-23T11:30:47.737Z,2.70
2018-05-23T11:31:47.705Z,2.40
2018-05-23T11:32:47.684Z,2.60
2018-05-23T11:33:47.634Z,2.40
2018-05-23T11:34:47.601Z,2.50
2018-05-23T11:35:47.572Z,2.60
2018-05-23T11:36:47.540Z,2.70
2018-05-23T11:37:47.525Z,2.60
2018-05-23T11:38:47.506Z,2.90
2018-05-23T11:39:47.433Z,2.70
2018-05-23T11:40:47.390Z,2.70
2018-05-23T11:41:47.365Z,3.10
2018-05-23T11:42:47.367Z,3.10
2018-05-23T11:43:47.338Z,3.00
2018-05-23T11:44:47.270Z,3.10
2018-05-23T11:45:47.238Z,2.90
2018-05-23T11:46:47.251Z,3.30
2018-05-23T11:47:47.192Z,3.50
2018-05-23T11:48:47.123Z,3.70
2018-05-23T11:49:47.098Z,3.60
2018-05-23T11:50:47.040Z,3.80
2018-05-23T11:51:47.014Z,3.60
2018-05-23T11:52:46.995Z,3.50
2018-05-23T11:53:46.945Z,3.70
2018-05-23T11:54:46.959Z,4.00
2018-05-23T11:55:46.895Z,4.10
2018-05-23T11:56:46.831Z,3.70
2018-05-23T11:57:46.823Z,3.90
2018-05-23T11:58:46.764Z,4.00
2018-05-23T11:59:46.738Z,3.80
2018-05-23T12:00:46.691Z,4.10
2018-05-23T12:01:46.653Z,4.00
2018-05-23T12:02:46.650Z,4.20
2018-05-23T12:03:46.590Z,3.80
2018-05-23T12:04:46.591Z,3.70
2018-05-23T12:05:46.527Z,4.20
2018-05-23T12:06:46.497Z,4.20
2018-05-23T12:07:46.476Z,4.10
2018-05-23T12:08:46.421Z,4.00
2018-05-23T12:09:46.369Z,3.90
2018-05-23T12:10:46.360Z,4.00
2018-05-23T12:11:46.299Z,4.10
2018-05-23T12:12:46.306Z,4.20
2018-05-23T12:13:46.236Z,3.90
2018-05-23T12:14:46.199Z,4.50
2018-05-23T12:15:46.155Z,4.00
2018-05-23T12:16:46.138Z,4.20
2018-05-23T12:17:46.118Z,4.40
2018-05-23T12:18:46.062Z,4.20
2018-05-23T12:19:46.108Z,4.90
2018-05-23T12:20:45.988Z,5.10
2018-05-23T12:21:45.954Z,5.20
2018-05-23T12:22:45.947Z,6.10
2018-05-23T12:23:45.916Z,6.70
2018-05-23T12:24:45.867Z,7.60
2018-05-23T12:25:45.824Z,7.80
2018-05-23T12:26:45.797Z,7.40
2018-05-23T12:27:45.782Z,7.10
2018-05-23T12:28:45.714Z,7.80
2018-05-23T12:29:45.685Z,7.30
2018-05-23T12:30:45.662Z,7.40
2018-05-23T12:31:45.624Z,7.30
2018-05-23T12:32:45.603Z,7.50
2018-05-23T12:33:45.548Z,7.60
2018-05-23T12:34:45.522Z,7.70
2018-05-23T12:35:45.481Z,6.60
2018-05-23T12:36:45.479Z,6.90
2018-05-23T12:37:45.417Z,6.50
2018-05-23T12:38:45.401Z,5.70
2018-05-23T12:39:45.352Z,6.10
2018-05-23T12:40:45.308Z,5.70
2018-05-23T12:41:45.303Z,6.00
2018-05-23T12:42:45.249Z,5.40
2018-05-23T12:43:45.224Z,5.90
2018-05-23T12:44:45.189Z,5.70
2018-05-23T12:45:45.164Z,5.50
2018-05-23T12:46:45.131Z,6.40
2018-05-23T12:47:45.081Z,5.90
2018-05-23T12:48:45.050Z,6.30
2018-05-23T12:49:45.018Z,5.20
2018-05-23T12:50:44.985Z,5.80
2018-05-23T12:51:44.971Z,4.70
2018-05-23T12:52:44.908Z,4.60
2018-05-23T12:53:44.871Z,4.80